createdAt,value
2022-09-28T10:12:15.969Z,44.79
2022-09-28T10:14:44.158Z,43.92
2022-09-28T10:17:20.569Z,44.97
2022-09-28T10:20:13.469Z,45.59
2022-09-28T10:23:05.037Z,46.09
2022-09-28T10:25:38.040Z,46.37
2022-09-28T10:28:15.929Z,46.70
2022-09-28T10:30:44.898Z,46.78
2022-09-28T10:33:33.541Z,46.83
2022-09-28T10:36:05.068Z,46.76
2022-09-28T10:38:34.250Z,46.90
2022-09-28T10:41:12.085Z,46.72
2022-09-28T10:44:08.707Z,46.50
2022-09-28T10:46:41.403Z,45.87
2022-09-28T10:49:17.891Z,45.72
2022-09-28T10:51:54.699Z,45.51
2022-09-28T10:54:30.126Z,45.73
2022-09-28T10:57:00.869Z,45.82
2022-09-28T10:59:51.837Z,46.03
2022-09-28T11:02:36.609Z,45.93
2022-09-28T11:05:18.574Z,45.93
2022-09-28T11:07:48.199Z,45.62
2022-09-28T11:10:26.623Z,45.63
2022-09-28T11:12:58.054Z,45.75
2022-09-28T11:15:33.362Z,45.59
2022-09-28T11:18:28.263Z,45.43
2022-09-28T11:21:14.876Z,45.11
2022-09-28T11:24:27.473Z,44.69
2022-09-28T11:27:00.334Z,44.71
2022-09-28T11:29:44.327Z,45.22
2022-09-28T11:32:42.134Z,45.07
2022-09-28T11:36:05.427Z,44.17
2022-09-28T11:38:42.258Z,44.44
2022-09-28T11:41:43.313Z,43.88
2022-09-28T11:44:39.852Z,43.69
2022-09-28T11:47:30.779Z,44.09
2022-09-28T11:50:23.554Z,43.54
2022-09-28T11:52:59.401Z,43.64
2022-09-28T11:55:34.555Z,43.57
2022-09-28T11:58:26.398Z,43.88
2022-09-28T12:01:26.062Z,44.15
2022-09-28T12:04:20.479Z,44.77
2022-09-28T12:07:12.631Z,44.98
2022-09-28T12:09:58.576Z,42.47
2022-09-28T12:12:37.395Z,41.47
2022-09-28T12:16:07.751Z,40.34
2022-09-28T12:18:45.044Z,39.41
2022-09-28T12:21:24.806Z,39.06
2022-09-28T12:24:27.833Z,38.60
2022-09-28T12:27:10.486Z,38.68
2022-09-28T12:29:48.314Z,39.33
2022-09-28T12:32:27.881Z,38.95
2022-09-28T12:34:56.572Z,38.68
2022-09-28T12:37:41.381Z,38.73
2022-09-28T12:40:21.552Z,38.96
2022-09-28T12:43:10.857Z,39.02
2022-09-28T12:46:11.978Z,39.09
2022-09-28T12:52:02.376Z,39.83
2022-09-28T12:54:34.497Z,39.82
2022-09-28T12:57:11.028Z,39.36
2022-09-28T12:59:47.552Z,39.10
2022-09-28T13:02:24.198Z,39.22
2022-09-28T13:05:22.979Z,39.29
2022-09-28T13:07:54.148Z,39.53
2022-09-28T13:10:40.685Z,40.47
2022-09-28T13:13:30.553Z,41.59
2022-09-28T13:15:58.309Z,42.08
2022-09-28T13:18:27.580Z,42.67
2022-09-28T13:21:23.113Z,42.97
2022-09-28T13:24:00.857Z,43.31
2022-09-28T13:26:40.525Z,43.66
2022-09-28T13:29:17.763Z,43.84
2022-09-28T13:31:58.254Z,44.10
2022-09-28T13:34:29.111Z,44.26
2022-09-28T13:37:18.173Z,44.44
2022-09-28T13:39:45.838Z,44.66
2022-09-28T13:42:59.021Z,44.58
2022-09-28T13:45:35.750Z,44.90
2022-09-28T13:48:11.546Z,44.95
2022-09-28T13:51:07.824Z,45.10
2022-09-28T13:54:00.143Z,45.29
2022-09-28T13:56:49.454Z,45.27
2022-09-28T13:59:27.262Z,45.33
2022-09-28T14:02:06.775Z,45.47
2022-09-28T14:04:55.254Z,45.67
2022-09-28T14:07:57.333Z,45.69
2022-09-28T14:10:54.926Z,45.90
2022-09-28T14:13:40.758Z,45.91
2022-09-28T14:16:36.297Z,46.02
2022-09-28T14:19:19.034Z,46.13
2022-09-28T14:22:26.735Z,46.21
2022-09-28T14:25:17.387Z,46.42
2022-09-28T14:28:06.727Z,46.53
2022-09-28T14:30:43.754Z,46.39
2022-09-28T14:33:26.809Z,46.64
2022-09-28T14:35:59.737Z,46.76
2022-09-28T14:39:05.655Z,46.84
2022-09-28T14:41:36.555Z,46.96
2022-09-28T14:44:11.291Z,46.90
2022-09-28T14:46:48.201Z,47.10
2022-09-28T14:49:23.405Z,47.15
2022-09-28T14:51:54.204Z,47.18
2022-09-28T14:54:28.307Z,47.19
2022-09-28T14:57:13.737Z,47.19
2022-09-28T14:59:44.001Z,47.15
2022-09-28T15:02:11.692Z,47.22
2022-09-28T15:05:02.801Z,47.22
2022-09-28T15:07:46.941Z,47.21
2022-09-28T15:10:26.655Z,47.15
2022-09-28T15:12:57.183Z,47.13
2022-09-28T15:15:28.968Z,47.17
2022-09-28T15:18:03.079Z,47.07
2022-09-28T15:20:37.016Z,47.25
2022-09-28T15:23:04.782Z,47.33
2022-09-28T15:25:33.995Z,47.28
2022-09-28T15:28:18.075Z,47.29
2022-09-28T15:30:46.178Z,47.31
2022-09-28T15:33:50.218Z,47.31
2022-09-28T15:36:30.133Z,47.35
2022-09-28T15:39:05.740Z,47.52
2022-09-28T15:41:34.312Z,47.30
2022-09-28T15:44:47.752Z,47.56
2022-09-28T15:47:25.238Z,47.65
2022-09-28T15:50:00.696Z,47.59
2022-09-28T15:52:43.588Z,47.56
2022-09-28T15:55:34.328Z,47.72
2022-09-28T15:58:12.660Z,47.61
2022-09-28T16:00:40.770Z,47.74
2022-09-28T16:03:23.505Z,47.66
2022-09-28T16:05:58.254Z,47.73
2022-09-28T16:08:45.988Z,47.81
2022-09-28T16:11:26.476Z,47.74
2022-09-28T16:14:18.459Z,47.76
2022-09-28T16:16:49.478Z,47.63
2022-09-28T16:19:31.355Z,47.80
2022-09-28T16:22:02.264Z,47.88
2022-09-28T16:24:34.443Z,47.66
2022-09-28T16:27:06.154Z,47.96
2022-09-28T16:29:41.318Z,47.84
2022-09-28T16:32:27.391Z,48.00
2022-09-28T16:35:10.933Z,47.97
2022-09-28T16:37:43.003Z,48.00
2022-09-28T16:40:14.071Z,48.08
2022-09-28T16:42:48.926Z,47.99
2022-09-28T16:45:23.865Z,48.06
2022-09-28T16:47:52.917Z,48.13
2022-09-28T16:50:22.214Z,48.07
2022-09-28T16:53:17.887Z,48.10
2022-09-28T16:55:49.873Z,48.29
2022-09-28T16:58:18.633Z,48.38
2022-09-28T17:00:46.378Z,48.30
2022-09-28T17:03:18.257Z,48.33
2022-09-28T17:05:48.014Z,48.38
2022-09-28T17:08:18.402Z,48.31
2022-09-28T17:11:22.781Z,48.36
2022-09-28T17:13:49.988Z,48.59
2022-09-28T17:16:43.575Z,48.52
2022-09-28T17:19:20.768Z,48.53
2022-09-28T17:21:49.246Z,48.71
2022-09-28T17:24:18.070Z,48.67
2022-09-28T17:26:49.315Z,48.76
2022-09-28T17:29:17.640Z,48.69
2022-09-28T17:31:46.703Z,48.79
2022-09-28T17:34:16.257Z,48.65
2022-09-28T17:36:44.974Z,48.47
2022-09-28T17:39:14.873Z,48.41
2022-09-28T17:41:42.963Z,48.57
2022-09-28T17:44:10.904Z,48.27
2022-09-28T17:46:45.877Z,48.25
2022-09-28T17:49:14.390Z,48.47
2022-09-28T17:51:42.192Z,48.33
2022-09-28T17:54:10.481Z,48.39
2022-09-28T17:56:38.441Z,48.28
2022-09-28T17:59:14.244Z,48.24
2022-09-28T18:01:42.403Z,48.36
2022-09-28T18:04:22.972Z,48.32
2022-09-28T18:07:00.392Z,48.28
2022-09-28T18:09:28.385Z,48.18
2022-09-28T18:12:01.018Z,48.20
2022-09-28T18:14:28.927Z,48.17
2022-09-28T18:16:57.293Z,48.21
2022-09-28T18:19:28.587Z,48.02
2022-09-28T18:22:01.455Z,48.11
2022-09-28T18:24:29.877Z,48.17
2022-09-28T18:26:57.742Z,48.05
2022-09-28T18:29:26.714Z,48.16
2022-09-28T18:31:55.992Z,48.13
2022-09-28T18:34:23.793Z,48.34
2022-09-28T18:36:51.866Z,48.38
2022-09-28T18:39:19.749Z,48.43
2022-09-28T18:41:47.677Z,48.45
2022-09-28T18:44:15.621Z,48.27
2022-09-28T18:46:43.705Z,48.30
2022-09-28T18:49:11.622Z,48.43
2022-09-28T18:51:39.592Z,48.56
2022-09-28T18:54:07.658Z,48.51
2022-09-28T18:56:37.387Z,48.54
2022-09-28T18:59:11.742Z,48.55
2022-09-28T19:01:41.973Z,48.64
2022-09-28T19:04:11.040Z,48.69
2022-09-28T19:06:41.356Z,48.80
2022-09-28T19:09:09.404Z,48.87
2022-09-28T19:11:44.591Z,49.06
2022-09-28T19:14:15.135Z,49.10
2022-09-28T19:16:45.093Z,49.24
2022-09-28T19:19:15.612Z,49.30
2022-09-28T19:21:43.523Z,49.23
2022-09-28T19:24:16.199Z,49.37
2022-09-28T19:26:45.203Z,49.47
2022-09-28T19:29:13.626Z,49.35
2022-09-28T19:31:43.569Z,49.46
2022-09-28T19:34:13.520Z,49.87
2022-09-28T19:36:42.624Z,49.80
2022-09-28T19:39:14.942Z,49.54
2022-09-28T19:41:47.872Z,49.53
2022-09-28T19:44:27.572Z,49.60
2022-09-28T19:47:00.725Z,49.74
2022-09-28T19:49:33.086Z,49.46
2022-09-28T19:52:12.793Z,49.51
2022-09-28T19:54:56.930Z,49.41
2022-09-28T19:57:27.732Z,49.42
2022-09-28T20:00:01.642Z,49.31
2022-09-28T20:02:34.547Z,49.54
2022-09-28T20:05:02.940Z,49.45
2022-09-28T20:07:33.145Z,49.27
2022-09-28T20:10:01.459Z,49.35
2022-09-28T20:12:31.953Z,49.61
2022-09-28T20:14:59.780Z,49.69
2022-09-28T20:17:27.674Z,49.92
2022-09-28T20:19:55.559Z,50.07
2022-09-28T20:22:23.775Z,50.16
2022-09-28T20:24:51.759Z,50.21
2022-09-28T20:27:22.101Z,50.28
2022-09-28T20:29:53.653Z,50.20
2022-09-28T20:32:21.426Z,50.18
2022-09-28T20:34:49.137Z,50.20
2022-09-28T20:37:17.635Z,50.20
2022-09-28T20:39:45.473Z,50.21
2022-09-28T20:42:15.546Z,50.19
2022-09-28T20:44:43.995Z,50.41
2022-09-28T20:47:11.755Z,50.65
2022-09-28T20:49:39.534Z,50.78
2022-09-28T20:52:07.368Z,50.80
2022-09-28T20:54:35.147Z,50.93
2022-09-28T20:57:02.942Z,50.96
2022-09-28T20:59:31.498Z,50.83
2022-09-28T21:01:59.284Z,50.84
2022-09-28T21:04:27.220Z,51.04
2022-09-28T21:06:54.968Z,50.73
2022-09-28T21:09:22.914Z,50.81
2022-09-28T21:11:50.706Z,50.75
2022-09-28T21:14:18.609Z,50.66
2022-09-28T21:16:46.353Z,50.67
2022-09-28T21:19:14.179Z,50.67
2022-09-28T21:21:42.026Z,50.50
2022-09-28T21:24:10.022Z,50.55
2022-09-28T21:26:39.080Z,50.52
2022-09-28T21:29:12.358Z,50.44
2022-09-28T21:31:45.781Z,50.41
2022-09-28T21:34:18.675Z,50.37
2022-09-28T21:36:48.262Z,50.44
2022-09-28T21:39:16.103Z,50.49
2022-09-28T21:41:44.565Z,50.45
2022-09-28T21:44:12.413Z,50.27
2022-09-28T21:46:40.289Z,50.26
2022-09-28T21:49:09.884Z,50.26
2022-09-28T21:51:38.176Z,50.08
2022-09-28T21:54:06.093Z,50.32
2022-09-28T21:56:33.928Z,50.16
2022-09-28T21:59:01.752Z,50.21
2022-09-28T22:01:29.665Z,50.27
2022-09-28T22:03:57.794Z,50.33
2022-09-28T22:06:28.251Z,50.28
2022-09-28T22:08:56.795Z,50.20
2022-09-28T22:11:27.823Z,50.31
2022-09-28T22:13:58.371Z,50.24
2022-09-28T22:16:30.817Z,50.36
2022-09-28T22:18:59.532Z,50.27
2022-09-28T22:21:30.634Z,50.38
2022-09-28T22:24:01.101Z,50.38
2022-09-28T22:26:31.753Z,50.24
2022-09-28T22:29:02.177Z,50.35
2022-09-28T22:31:32.568Z,50.17
2022-09-28T22:34:01.394Z,50.32
2022-09-28T22:36:30.074Z,50.28
2022-09-28T22:38:59.428Z,50.19
2022-09-28T22:41:27.281Z,50.26
2022-09-28T22:43:55.693Z,50.23
2022-09-28T22:46:27.077Z,50.34
2022-09-28T22:48:57.244Z,50.31
2022-09-28T22:51:27.821Z,50.30
2022-09-28T22:53:56.650Z,50.32
2022-09-28T22:56:25.168Z,50.35
2022-09-28T22:58:53.157Z,50.34
2022-09-28T23:01:23.565Z,50.36
2022-09-28T23:03:53.056Z,50.40
2022-09-28T23:06:24.116Z,50.46
2022-09-28T23:08:53.247Z,50.38
2022-09-28T23:11:21.351Z,50.52
2022-09-28T23:13:59.473Z,50.64
2022-09-28T23:16:27.992Z,50.36
2022-09-28T23:18:56.397Z,50.47
2022-09-28T23:21:26.679Z,50.39
2022-09-28T23:24:00.978Z,50.34
2022-09-28T23:26:36.872Z,50.41
2022-09-28T23:29:04.821Z,50.43
2022-09-28T23:31:33.309Z,50.40
2022-09-28T23:34:04.369Z,50.42
2022-09-28T23:36:33.563Z,50.36
2022-09-28T23:39:01.764Z,50.62
2022-09-28T23:41:30.056Z,50.47
2022-09-28T23:43:57.902Z,50.53
2022-09-28T23:46:25.803Z,50.49
2022-09-28T23:48:53.796Z,50.41
2022-09-28T23:51:21.683Z,50.47
2022-09-28T23:53:49.618Z,50.52
2022-09-28T23:56:17.525Z,50.51
2022-09-28T23:58:45.292Z,50.58
